Albuquerque, NM (87111)

12:27 PM MDT on August 28, 2015 (GMT -0600)
Spain and Moon | | Change Station
CLOSE
Current Station
Personal Weather Station
Location: Albuquerque, NM
Elevation: 5519 ft
Nearby Weather Stations

Elev 5519 ft 35.14 °N, 106.54 °W | Updated 2 minutes ago

Partly Cloudy
Partly Cloudy
81.4 °F
Feels Like 81 °F
N
0.0
Wind Variable Wind from NW
Gusts 3.0 mph

Today
High -- | Low -- °F
--% Chance of Precip.
Yesterday
High -- | Low -- °F
Precip. -- in
6:35 AM 7:38 PM
Waxing Gibbous, 98% visible
Pressure 29.98 in
Visibility 10.0 miles
Clouds Few 5500 ft
Few 13000 ft
Mostly Cloudy 23000 ft
Heat Index 81 °F
Dew Point 54 °F
Humidity 39%
Rainfall 0.00 in
Snow Depth Not available.
UV 6 out of 12
Pollen 6.90 out of 12
Air Quality Not available.
Flu Activity Not available.
METAR KABQ 281752Z VRB04KT 10SM FEW055 FEW130 BKN230 27/12 A3023 RMK AO2 SLP151 CB DSNT N AND S TCU DSNT E-SE AND W-N T02720117 10278 20167 58003
Pressure 29.98 in
Visibility 10.0 miles
Clouds Few 5500 ft
Few 13000 ft
Mostly Cloudy 23000 ft
Heat Index 81 °F
Dew Point 54 °F
Humidity 39%
Rainfall 0.00 in
Snow Depth Not available.
UV 6 out of 12
Pollen 6.90 out of 12
Air Quality Not available.
Flu Activity Not available.
METAR KABQ 281752Z VRB04KT 10SM FEW055 FEW130 BKN230 27/12 A3023 RMK AO2 SLP151 CB DSNT N AND S TCU DSNT E-SE AND W-N T02720117 10278 20167 58003

10-Day Weather Forecast

×

Almanac

Astronomy

Aug. 28, 2015 Rise Set
Actual Time
Civil Twilight
Nautical Twilight
Astronomical Twilight
Moon
Length of Visible Light
Length of Day
Tomorrow will be .
, % of the Moon is Illuminated

Today's Extremes

State Highs State Lows

Community

WunderPhotos

Upload Photos

1,850,453 photos uploaded!

WunderBlogs® & News

Nearby

Air Quality

  Air Quality AQ Index Pollutant
Not available.

Snow Depth

Station Depth Elevation

Earthquake Activity

City Distance Mag. Time & Date
Minimum magnitude displayed is 2.5.

Coastal Water Temperatures

Place Temperature

Stations

Nearby Weather Stations

Station Location Temp. Windchill Dew Point Humidity Wind Precip. Elev Updated Type